Time;durP1;ratioP1;P1;durP2;ratioP2;P2;SDS_P1;SDS_P2;PMS_P1;PMS_P2;Temp;Humidity;BMP_temperature;BMP_pressure;BME280_temperature;BME280_humidity;BME280_pressure;Samples;Min_cycle;Max_cycle;Signal;HPM_P1;HPM_P2
2022/10/25 00:00:29;;;;;;;7.53;3.70;;;;;;;10.47;100.00;100447.00;5033553;28;20049;-58
2022/10/25 00:02:55;;;;;;;11.43;4.03;;;;;;;10.48;100.00;100440.63;5034453;28;20040;-59
2022/10/25 00:05:21;;;;;;;11.27;5.00;;;;;;;10.50;100.00;100439.50;5034098;28;20523;-58
2022/10/25 00:07:47;;;;;;;7.35;4.00;;;;;;;10.53;100.00;100444.63;5034648;28;20025;-60
2022/10/25 00:10:13;;;;;;;6.65;4.40;;;;;;;10.53;100.00;100436.56;5033141;28;20033;-58
2022/10/25 00:12:44;;;;;;;9.00;4.43;;;;;;;10.57;100.00;100433.59;5034611;28;20184;-59
2022/10/25 00:15:12;;;;;;;0.47;0.20;;;;;;;10.58;100.00;100432.63;5034154;28;20080;-58
2022/10/25 00:17:38;;;;;;;0.20;0.20;;;;;;;10.59;100.00;100432.50;5034233;28;20033;-59
2022/10/25 00:20:04;;;;;;;0.00;0.00;;;;;;;10.60;100.00;100428.00;5034394;28;20102;-59
2022/10/25 00:22:30;;;;;;;0.00;0.00;;;;;;;10.62;100.00;100428.72;5034273;28;20124;-59
2022/10/25 00:24:55;;;;;;;0.20;0.20;;;;;;;10.63;100.00;100427.72;5034392;28;20120;-59
2022/10/25 00:27:21;;;;;;;0.05;0.05;;;;;;;10.63;100.00;100419.66;5032810;28;20025;-58
2022/10/25 00:29:47;;;;;;;0.00;0.00;;;;;;;10.65;100.00;100420.38;5034238;28;20029;-59
2022/10/25 00:32:12;;;;;;;0.25;0.25;;;;;;;10.69;100.00;100419.13;5034014;28;20033;-60
2022/10/25 00:34:41;;;;;;;0.17;0.17;;;;;;;10.69;100.00;100411.06;5032814;28;20035;-58
2022/10/25 00:37:07;;;;;;;0.17;0.17;;;;;;;10.70;100.00;100404.69;5033676;28;20059;-58
2022/10/25 00:39:32;;;;;;;0.55;0.30;;;;;;;10.71;100.00;100409.09;5034096;28;20056;-58
2022/10/25 00:41:58;;;;;;;0.10;0.10;;;;;;;10.71;100.00;100414.47;5032696;28;20063;-59
2022/10/25 00:44:54;;;;;;;0.40;0.40;;;;;;;10.73;100.00;100405.28;5034090;28;20072;-58
2022/10/25 00:47:20;;;;;;;0.20;0.20;;;;;;;10.74;100.00;100400.75;5032731;28;20037;-60
2022/10/25 00:49:51;;;;;;;0.10;0.10;;;;;;;10.74;100.00;100398.06;5033580;28;20037;-58
2022/10/25 00:52:18;;;;;;;0.00;0.00;;;;;;;10.74;100.00;100398.91;5033733;28;20112;-58
2022/10/25 00:54:47;;;;;;;0.77;0.60;;;;;;;10.75;100.00;100389.00;5033382;28;20080;-58
2022/10/25 00:57:37;;;;;;;0.40;0.28;;;;;;;10.77;100.00;100403.19;5033286;28;20034;-59
2022/10/25 01:00:06;;;;;;;0.10;0.10;;;;;;;10.76;100.00;100390.75;5033263;28;20033;-59
2022/10/25 01:02:31;;;;;;;0.00;0.00;;;;;;;10.75;100.00;100389.00;5033589;28;20029;-58
2022/10/25 01:04:57;;;;;;;4.18;0.75;;;;;;;10.77;100.00;100379.84;5033393;28;20394;-58
2022/10/25 01:07:23;;;;;;;0.10;0.10;;;;;;;10.77;100.00;100382.53;5033696;28;20022;-58
2022/10/25 01:09:50;;;;;;;0.32;0.32;;;;;;;10.79;100.00;100374.31;5032014;28;20478;-60
2022/10/25 01:12:15;;;;;;;0.35;0.25;;;;;;;10.82;100.00;100371.38;5033098;28;20029;-59
2022/10/25 01:14:44;;;;;;;0.45;0.45;;;;;;;10.83;100.00;100373.06;5031274;28;20477;-58
2022/10/25 01:17:17;;;;;;;0.30;0.30;;;;;;;10.84;100.00;100372.94;5033089;28;20048;-59
2022/10/25 01:20:07;;;;;;;0.00;0.00;;;;;;;10.85;100.00;100368.41;5033226;28;20029;-58
2022/10/25 01:22:44;;;;;;;0.10;0.10;;;;;;;10.86;100.00;100370.09;5032861;28;20038;-60
2022/10/25 01:25:32;;;;;;;1.25;0.65;;;;;;;10.89;100.00;100359.06;5031583;28;20030;-58
2022/10/25 01:28:36;;;;;;;0.10;0.10;;;;;;;10.91;100.00;100359.78;5033064;28;20161;-59
2022/10/25 01:31:14;;;;;;;0.00;0.00;;;;;;;10.89;100.00;100361.75;5031465;28;20034;-58
2022/10/25 01:34:00;;;;;;;0.32;0.25;;;;;;;10.87;100.00;100350.28;5032798;28;20389;-58
2022/10/25 01:36:28;;;;;;;;;;;;;;;10.88;100.00;100349.31;5031920;28;20070;-58
2022/10/25 01:39:21;;;;;;;0.00;0.00;;;;;;;10.88;100.00;100346.63;5031541;28;19935;-59
2022/10/25 01:42:15;;;;;;;0.77;0.55;;;;;;;10.96;100.00;100348.66;5032768;28;20044;-59
2022/10/25 01:45:10;;;;;;;0.88;0.82;;;;;;;10.98;100.00;100338.59;5032647;28;20034;-59
2022/10/25 01:47:42;;;;;;;0.57;0.57;;;;;;;10.98;100.00;100342.13;5031464;28;20555;-58
2022/10/25 01:50:15;;;;;;;0.08;0.08;;;;;;;10.99;100.00;100341.16;5032640;28;20036;-59
2022/10/25 01:52:40;;;;;;;1.17;0.80;;;;;;;10.96;100.00;100344.13;5030918;28;20037;-59
2022/10/25 01:55:10;;;;;;;0.68;0.68;;;;;;;10.89;100.00;100337.56;5032283;28;20167;-59
2022/10/25 01:58:00;;;;;;;0.52;0.47;;;;;;;10.86;100.00;100337.84;5032426;28;20471;-58
2022/10/25 02:00:26;;;;;;;0.52;0.35;;;;;;;10.96;100.00;100332.50;5031272;28;20030;-58
2022/10/25 02:03:19;;;;;;;2.38;1.85;;;;;;;11.00;100.00;100329.41;5032531;28;20493;-57
2022/10/25 02:05:59;;;;;;;0.55;0.55;;;;;;;11.03;100.00;100333.66;5030926;28;20030;-59
2022/10/25 02:08:43;;;;;;;4.22;1.67;;;;;;;11.04;100.00;100330.81;5032139;28;20055;-59
2022/10/25 02:11:27;;;;;;;1.80;1.67;;;;;;;11.04;100.00;100325.44;5031990;28;20462;-58
2022/10/25 02:14:10;;;;;;;2.67;1.27;;;;;;;11.07;100.00;100322.47;5032009;28;20103;-58
2022/10/25 02:16:45;;;;;;;1.92;1.75;;;;;;;11.08;100.00;100321.50;5030713;28;20084;-58
2022/10/25 02:19:19;;;;;;;6.28;0.98;;;;;;;11.11;100.00;100325.78;5031897;28;20104;-59
2022/10/25 02:21:47;;;;;;;2.13;0.93;;;;;;;11.11;100.00;100321.25;5032155;28;20483;-58
2022/10/25 02:24:22;;;;;;;3.72;2.28;;;;;;;11.12;100.00;100317.56;5031964;28;20040;-59
2022/10/25 02:26:49;;;;;;;2.20;1.15;;;;;;;11.12;100.00;100312.19;5031109;28;20113;-57
2022/10/25 02:29:17;;;;;;;8.02;2.42;;;;;;;11.17;100.00;100313.59;5030365;28;20029;-57
2022/10/25 02:31:44;;;;;;;1.55;1.25;;;;;;;11.17;100.00;100316.28;5031853;28;20120;-57
2022/10/25 02:34:09;;;;;;;2.72;2.53;;;;;;;11.18;100.00;100307.22;5031879;28;20033;-57
2022/10/25 02:36:35;;;;;;;4.63;2.40;;;;;;;11.18;100.00;100304.53;5030767;28;20026;-58
2022/10/25 02:39:02;;;;;;;1.60;1.00;;;;;;;11.18;100.00;100309.91;5031487;28;20029;-57
2022/10/25 02:41:28;;;;;;;1.25;1.08;;;;;;;11.17;100.00;100308.22;5030293;28;20036;-57
2022/10/25 02:43:53;;;;;;;0.30;0.30;;;;;;;11.21;100.00;100304.25;5030506;28;20112;-57
2022/10/25 02:46:21;;;;;;;3.90;2.33;;;;;;;11.21;100.00;100298.88;5030413;28;20026;-57
2022/10/25 02:48:47;;;;;;;2.60;2.15;;;;;;;11.20;100.00;100295.34;5030296;28;20052;-57
2022/10/25 02:51:14;;;;;;;3.00;1.55;;;;;;;11.19;100.00;100290.94;5031595;28;20033;-58
2022/10/25 02:53:40;;;;;;;17.77;2.55;;;;;;;11.22;100.00;100295.19;5030315;28;20053;-58
2022/10/25 02:56:09;;;;;;;2.15;1.58;;;;;;;11.22;100.00;100295.19;5030156;28;20030;-58
2022/10/25 02:58:37;;;;;;;5.18;2.20;;;;;;;11.22;100.00;100295.19;5032202;28;20109;-58
2022/10/25 03:01:04;;;;;;;2.03;1.85;;;;;;;11.23;100.00;100296.91;5030502;28;20025;-58
2022/10/25 03:03:30;;;;;;;0.90;0.90;;;;;;;11.22;100.00;100292.50;5030823;28;20034;-58
2022/10/25 03:05:56;;;;;;;5.05;2.65;;;;;;;11.22;100.00;100289.81;5031974;28;20064;-58
2022/10/25 03:08:22;;;;;;;2.85;1.83;;;;;;;11.24;100.00;100298.59;5030569;28;20095;-59
2022/10/25 03:10:48;;;;;;;4.30;2.22;;;;;;;11.25;100.00;100300.28;5031921;28;20120;-58
2022/10/25 03:13:14;;;;;;;4.40;1.77;;;;;;;11.25;100.00;100300.28;5031046;28;20117;-59
2022/10/25 03:15:39;;;;;;;3.28;1.77;;;;;;;11.26;100.00;100291.25;5032089;28;20044;-59
2022/10/25 03:18:05;;;;;;;0.80;0.80;;;;;;;11.27;100.00;100290.28;5030668;28;20029;-59
2022/10/25 03:20:30;;;;;;;0.82;0.82;;;;;;;11.26;100.00;100292.13;5032304;28;20033;-58
2022/10/25 03:22:56;;;;;;;1.98;1.83;;;;;;;11.26;100.00;100292.13;5032130;28;20025;-60
2022/10/25 03:25:22;;;;;;;3.17;2.22;;;;;;;11.27;100.00;100287.59;5029872;28;20029;-56
2022/10/25 03:27:47;;;;;;;2.72;1.92;;;;;;;11.27;100.00;100292.97;5031812;28;20398;-58
2022/10/25 03:30:14;;;;;;;10.85;2.95;;;;;;;11.26;100.00;100291.25;5031753;28;20030;-58
2022/10/25 03:32:39;;;;;;;2.88;1.42;;;;;;;11.27;100.00;100292.97;5031327;28;20033;-58
2022/10/25 03:35:06;;;;;;;2.72;1.33;;;;;;;11.28;100.00;100281.22;5029814;28;20116;-58
2022/10/25 03:37:31;;;;;;;1.25;0.90;;;;;;;11.27;100.00;100285.75;5031400;28;20040;-58
2022/10/25 03:39:57;;;;;;;4.05;2.47;;;;;;;11.29;100.00;100288.28;5034853;28;20030;-58
2022/10/25 03:42:23;;;;;;;1.15;1.05;;;;;;;11.30;100.00;100288.16;5035035;28;20040;-58
2022/10/25 03:44:49;;;;;;;2.28;1.35;;;;;;;11.31;100.00;100275.53;5034892;28;20092;-58
2022/10/25 03:47:15;;;;;;;4.95;1.65;;;;;;;11.29;100.00;100264.91;5033407;28;20029;-57
2022/10/25 03:49:41;;;;;;;3.38;2.00;;;;;;;11.31;100.00;100286.31;5034762;28;20032;-58
2022/10/25 03:52:06;;;;;;;2.08;1.30;;;;;;;11.31;100.00;100281.78;5033327;28;20113;-59
2022/10/25 03:54:32;;;;;;;3.15;1.88;;;;;;;11.31;100.00;100272.84;5032908;28;20053;-57
2022/10/25 03:56:58;;;;;;;4.03;2.53;;;;;;;11.29;100.00;100273.00;5033118;28;20068;-57
2022/10/25 03:59:24;;;;;;;2.92;2.25;;;;;;;11.31;100.00;100262.09;5034774;28;20042;-58
2022/10/25 04:01:50;;;;;;;1.65;1.35;;;;;;;11.30;100.00;100266.63;5034531;28;20361;-57
2022/10/25 04:04:15;;;;;;;3.42;1.70;;;;;;;11.32;100.00;100274.53;5032944;28;20037;-57
2022/10/25 04:06:41;;;;;;;2.78;2.42;;;;;;;11.30;100.00;100276.53;5032935;28;20041;-59
2022/10/25 04:09:07;;;;;;;3.00;1.63;;;;;;;11.29;100.00;100274.84;5032691;28;20103;-58
2022/10/25 04:11:32;;;;;;;6.55;2.58;;;;;;;11.28;100.00;100273.13;5034404;28;20377;-57
2022/10/25 04:13:58;;;;;;;1.05;0.55;;;;;;;11.29;100.00;100269.44;5033217;28;20061;-58
2022/10/25 04:16:25;;;;;;;0.85;0.85;;;;;;;11.26;100.00;100275.13;5034178;28;20037;-57
2022/10/25 04:18:56;;;;;;;2.53;2.28;;;;;;;11.24;100.00;100279.75;5034171;28;20056;-57
2022/10/25 04:21:22;;;;;;;4.43;1.92;;;;;;;11.22;100.00;100279.06;5033068;28;20115;-59
2022/10/25 04:23:51;;;;;;;3.15;2.50;;;;;;;11.18;100.00;100273.09;5033945;28;20347;-60
2022/10/25 04:26:18;;;;;;;1.55;0.93;;;;;;;11.19;100.00;100273.94;5032710;28;20044;-58
2022/10/25 04:28:50;;;;;;;2.30;1.70;;;;;;;11.17;100.00;100270.56;5033778;28;20071;-57
2022/10/25 04:31:16;;;;;;;1.25;0.98;;;;;;;11.17;100.00;100281.31;5032159;28;20512;-56
2022/10/25 04:33:42;;;;;;;0.45;0.45;;;;;;;11.17;100.00;100271.41;5032230;28;20121;-57
2022/10/25 04:36:07;;;;;;;0.40;0.40;;;;;;;11.17;100.00;100275.94;5032377;28;20124;-58
2022/10/25 04:38:33;;;;;;;0.60;0.60;;;;;;;11.15;100.00;100276.94;5032428;28;20099;-58
2022/10/25 04:41:00;;;;;;;5.53;2.13;;;;;;;11.17;100.00;100267.88;5032290;28;20033;-59
2022/10/25 04:43:27;;;;;;;0.93;0.40;;;;;;;11.18;100.00;100269.56;5032177;28;20068;-59
2022/10/25 04:45:53;;;;;;;4.22;1.42;;;;;;;11.18;100.00;100273.09;5031937;28;20025;-59
2022/10/25 04:48:20;;;;;;;2.38;1.73;;;;;;;11.18;100.00;100277.63;5031809;28;20045;-57
2022/10/25 04:50:46;;;;;;;1.13;1.08;;;;;;;11.19;100.00;100279.34;5032174;28;20029;-59
2022/10/25 04:53:11;;;;;;;2.42;1.42;;;;;;;11.20;100.00;100276.50;5031174;28;20049;-58
2022/10/25 04:55:37;;;;;;;3.47;2.00;;;;;;;11.20;100.00;100273.81;5031998;28;20025;-58
2022/10/25 04:58:03;;;;;;;5.45;2.63;;;;;;;11.21;100.00;100272.81;5033007;28;20106;-58
2022/10/25 05:00:30;;;;;;;1.58;0.65;;;;;;;11.21;100.00;100270.13;5033347;28;20037;-58
2022/10/25 05:02:55;;;;;;;1.38;1.33;;;;;;;11.21;100.00;100277.34;5033435;28;20033;-57
2022/10/25 05:05:23;;;;;;;1.77;1.30;;;;;;;11.22;100.00;100262.91;5031131;28;20083;-58
2022/10/25 05:07:49;;;;;;;5.90;3.33;;;;;;;11.24;100.00;100263.63;5031050;28;20490;-59
2022/10/25 05:10:15;;;;;;;3.85;2.85;;;;;;;11.25;100.00;100257.25;5031371;28;20067;-59
2022/10/25 05:12:41;;;;;;;11.60;2.50;;;;;;;11.25;100.00;100259.94;5031608;28;20470;-59
2022/10/25 05:15:08;;;;;;;2.15;1.73;;;;;;;11.25;100.00;100257.25;5032606;28;20037;-59
2022/10/25 05:17:34;;;;;;;4.20;2.33;;;;;;;11.28;100.00;100255.16;5030684;28;20427;-58
2022/10/25 05:19:59;;;;;;;1.75;1.45;;;;;;;11.28;100.00;100257.00;5032291;28;20517;-59
2022/10/25 05:22:25;;;;;;;3.72;1.45;;;;;;;11.31;100.00;100262.94;5031161;28;20447;-58
2022/10/25 05:24:51;;;;;;;4.13;2.78;;;;;;;11.28;100.00;100254.28;5032431;28;20043;-56
2022/10/25 05:27:17;;;;;;;0.82;0.63;;;;;;;11.23;100.00;100259.22;5032541;28;20037;-59
2022/10/25 05:29:42;;;;;;;2.53;1.40;;;;;;;11.22;100.00;100258.38;5030972;28;20021;-58
2022/10/25 05:32:08;;;;;;;2.50;2.30;;;;;;;11.29;100.00;100253.31;5031917;28;20037;-59
2022/10/25 05:34:33;;;;;;;3.30;1.95;;;;;;;11.32;100.00;100253.03;5030797;28;20029;-59
2022/10/25 05:36:59;;;;;;;10.50;1.48;;;;;;;11.32;100.00;100255.72;5032148;28;20037;-58
2022/10/25 05:39:25;;;;;;;1.30;0.75;;;;;;;11.34;100.00;100261.81;5031977;28;20375;-59
2022/10/25 05:41:51;;;;;;;1.90;1.80;;;;;;;11.34;100.00;100253.72;5032161;28;20098;-59
2022/10/25 05:44:16;;;;;;;1.10;0.98;;;;;;;11.35;100.00;100258.13;5030446;28;20029;-58
2022/10/25 05:46:43;;;;;;;3.05;1.23;;;;;;;11.36;100.00;100263.34;5032329;28;20038;-59
2022/10/25 05:49:09;;;;;;;2.60;1.75;;;;;;;11.33;100.00;100265.47;5031657;28;20160;-59
2022/10/25 05:51:35;;;;;;;3.50;2.03;;;;;;;11.37;100.00;100262.38;5031583;28;20040;-59
2022/10/25 05:54:10;;;;;;;1.33;1.25;;;;;;;11.38;100.00;100264.06;5029631;28;20045;-58
2022/10/25 05:56:36;;;;;;;1.23;1.02;;;;;;;11.37;100.00;100261.50;5029773;28;20041;-59
2022/10/25 05:59:07;;;;;;;0.88;0.73;;;;;;;11.39;100.00;100259.53;5030961;28;20466;-59
2022/10/25 06:01:33;;;;;;;2.65;1.83;;;;;;;11.33;100.00;100254.72;5030494;28;20029;-60
2022/10/25 06:03:59;;;;;;;0.40;0.40;;;;;;;11.39;100.00;100244.22;5029715;28;20128;-60
2022/10/25 06:06:26;;;;;;;1.35;0.90;;;;;;;11.40;100.00;100250.47;5029319;28;20121;-60
2022/10/25 06:08:58;;;;;;;2.97;2.22;;;;;;;11.41;100.00;100249.47;5031198;28;20037;-58
2022/10/25 06:11:27;;;;;;;0.22;0.22;;;;;;;11.37;100.00;100250.75;5029582;28;20140;-59
2022/10/25 06:13:53;;;;;;;3.03;0.90;;;;;;;11.37;100.00;100258.81;5031201;28;20033;-60
2022/10/25 06:16:20;;;;;;;1.23;1.02;;;;;;;11.42;100.00;100260.13;5030390;28;20026;-58
2022/10/25 06:18:46;;;;;;;3.47;2.85;;;;;;;11.41;100.00;100262.94;5029424;28;20117;-60
2022/10/25 06:21:23;;;;;;;3.85;1.90;;;;;;;11.42;100.00;100261.94;5030611;28;20041;-61
2022/10/25 06:23:49;;;;;;;1.40;1.27;;;;;;;11.44;100.00;100262.69;5030390;28;20137;-60
2022/10/25 06:26:18;;;;;;;9.30;2.75;;;;;;;11.44;100.00;100268.06;5030660;28;20037;-60
2022/10/25 06:28:44;;;;;;;2.85;1.88;;;;;;;11.43;100.00;100272.59;5031126;28;20505;-59
2022/10/25 06:31:12;;;;;;;5.10;2.00;;;;;;;11.42;100.00;100264.63;5029549;28;20037;-59
2022/10/25 06:33:38;;;;;;;4.22;1.73;;;;;;;11.46;100.00;100274.16;5030108;28;20056;-61
2022/10/25 06:36:07;;;;;;;7.82;3.05;;;;;;;11.46;100.00;100276.84;5030061;28;20037;-60
2022/10/25 06:38:33;;;;;;;3.40;1.55;;;;;;;11.47;100.00;100278.53;5029233;28;20087;-59
2022/10/25 06:41:00;;;;;;;0.82;0.82;;;;;;;11.46;100.00;100276.84;5030373;28;20029;-59
2022/10/25 06:43:26;;;;;;;2.83;2.35;;;;;;;11.48;100.00;100274.84;5030499;28;20033;-60
2022/10/25 06:45:52;;;;;;;1.45;1.35;;;;;;;11.47;100.00;100280.38;5030452;28;20036;-59
2022/10/25 06:48:18;;;;;;;0.95;0.93;;;;;;;11.54;100.00;100282.34;5029437;28;20434;-60
2022/10/25 06:50:44;;;;;;;0.75;0.75;;;;;;;11.53;100.00;100283.34;5030964;28;20041;-60
2022/10/25 06:53:09;;;;;;;0.60;0.60;;;;;;;11.51;100.00;100274.56;5030215;28;20455;-60
2022/10/25 06:55:35;;;;;;;1.48;1.40;;;;;;;11.56;100.00;100283.06;5029949;28;20462;-61
2022/10/25 06:58:01;;;;;;;3.85;2.38;;;;;;;11.56;100.00;100277.69;5031114;28;20040;-61
2022/10/25 07:00:26;;;;;;;3.17;2.47;;;;;;;11.54;100.00;100278.81;5031266;28;20061;-60
2022/10/25 07:02:57;;;;;;;3.00;2.00;;;;;;;11.57;100.00;100279.38;5030467;28;20029;-60
2022/10/25 07:05:23;;;;;;;1.42;1.33;;;;;;;11.51;100.00;100279.94;5030296;28;20060;-58
2022/10/25 07:07:50;;;;;;;4.57;2.15;;;;;;;11.54;100.00;100279.66;5028573;28;20037;-59
2022/10/25 07:10:15;;;;;;;2.38;0.95;;;;;;;11.50;100.00;100280.09;5030522;28;20057;-59
2022/10/25 07:12:41;;;;;;;1.08;1.08;;;;;;;11.58;100.00;100273.00;5029723;28;20076;-59
2022/10/25 07:15:07;;;;;;;5.57;1.38;;;;;;;11.58;100.00;100275.69;5034693;28;20475;-60
2022/10/25 07:17:33;;;;;;;7.93;2.47;;;;;;;11.60;100.00;100276.44;5032904;28;20116;-59
2022/10/25 07:19:59;;;;;;;3.22;2.92;;;;;;;11.60;100.00;100280.97;5034536;28;20597;-60
2022/10/25 07:22:24;;;;;;;2.33;1.75;;;;;;;11.61;100.00;100274.59;5034122;28;20117;-58
2022/10/25 07:24:50;;;;;;;2.17;1.48;;;;;;;11.61;100.00;100270.06;5032660;28;20033;-60
2022/10/25 07:27:16;;;;;;;1.80;1.58;;;;;;;11.66;100.00;100273.16;5033028;28;20033;-58
2022/10/25 07:29:42;;;;;;;1.98;0.93;;;;;;;11.71;100.00;100272.72;5034703;28;20029;-59
2022/10/25 07:32:08;;;;;;;2.95;2.75;;;;;;;11.75;100.00;100276.81;5034344;28;20462;-59
2022/10/25 07:34:34;;;;;;;8.52;2.17;;;;;;;11.79;100.00;100277.44;5033019;28;20029;-58
2022/10/25 07:37:00;;;;;;;1.60;1.10;;;;;;;11.85;100.00;100277.72;5033869;28;20033;-59
2022/10/25 07:39:25;;;;;;;5.70;2.22;;;;;;;11.83;100.00;100273.47;5034465;28;20037;-59
2022/10/25 07:41:52;;;;;;;1.73;1.13;;;;;;;11.82;100.00;100282.56;5033895;28;20088;-59
2022/10/25 07:44:19;;;;;;;0.80;0.63;;;;;;;11.86;100.00;100273.19;5033310;28;20033;-58
2022/10/25 07:46:49;;;;;;;7.15;1.77;;;;;;;11.88;100.00;100272.03;5033996;28;20055;-59
2022/10/25 07:49:15;;;;;;;1.73;1.63;;;;;;;11.94;100.00;100270.63;5033495;28;20119;-60
2022/10/25 07:51:41;;;;;;;1.42;1.35;;;;;;;11.96;100.00;100271.34;5033860;28;20044;-59
2022/10/25 07:54:06;;;;;;;2.55;2.42;;;;;;;11.96;100.00;100269.50;5032312;28;20053;-59
2022/10/25 07:56:32;;;;;;;2.47;1.95;;;;;;;11.99;100.00;100273.75;5034349;28;20064;-58
2022/10/25 07:58:58;;;;;;;1.95;1.50;;;;;;;11.97;100.00;100275.75;5032067;28;20087;-59
2022/10/25 08:01:26;;;;;;;1.13;1.05;;;;;;;11.98;100.00;100277.44;5034329;28;20033;-59
2022/10/25 08:03:52;;;;;;;3.65;1.90;;;;;;;11.99;100.00;100268.34;5034044;28;20033;-60
2022/10/25 08:06:18;;;;;;;3.05;1.70;;;;;;;11.98;100.00;100274.75;5033587;28;20102;-59
2022/10/25 08:08:44;;;;;;;3.35;2.45;;;;;;;11.99;100.00;100279.13;5033233;28;20032;-58
2022/10/25 08:11:10;;;;;;;0.70;0.70;;;;;;;12.00;100.00;100275.44;5033149;28;20033;-59
2022/10/25 08:13:36;;;;;;;2.80;2.55;;;;;;;12.02;100.00;100273.44;5033321;28;20433;-59
2022/10/25 08:16:02;;;;;;;2.63;2.42;;;;;;;12.07;100.00;100281.94;5031824;28;20477;-59
2022/10/25 08:18:28;;;;;;;0.63;0.63;;;;;;;12.10;100.00;100275.44;5033875;28;20025;-59
2022/10/25 08:20:53;;;;;;;1.75;1.65;;;;;;;12.15;100.00;100278.53;5033151;28;20459;-59
2022/10/25 08:23:19;;;;;;;0.95;0.90;;;;;;;12.14;100.00;100288.47;5031659;28;20123;-59
2022/10/25 08:25:46;;;;;;;3.40;2.30;;;;;;;12.25;100.00;100285.59;5033448;28;20438;-59
2022/10/25 08:28:12;;;;;;;1.13;1.02;;;;;;;12.24;100.00;100286.59;5032434;28;20039;-59
2022/10/25 08:30:39;;;;;;;1.63;1.52;;;;;;;12.26;100.00;100287.34;5033401;28;20343;-59
2022/10/25 08:33:05;;;;;;;4.60;1.42;;;;;;;12.47;100.00;100288.97;5033180;28;20057;-58
2022/10/25 08:35:31;;;;;;;3.65;1.55;;;;;;;12.59;100.00;100285.94;5033190;28;20028;-58
2022/10/25 08:38:01;;;;;;;4.05;2.65;;;;;;;12.54;100.00;100292.78;5033266;28;20033;-58
2022/10/25 08:40:42;;;;;;;2.08;1.90;;;;;;;12.43;100.00;100284.84;5032114;28;20073;-60
2022/10/25 08:43:41;;;;;;;1.80;1.50;;;;;;;12.38;100.00;100284.44;5032988;28;20064;-60
2022/10/25 08:46:36;;;;;;;2.47;0.90;;;;;;;12.55;100.00;100280.97;5032045;28;20083;-58
2022/10/25 08:49:20;;;;;;;0.82;0.60;;;;;;;12.64;100.00;100286.34;5031533;28;20098;-59
2022/10/25 08:51:49;;;;;;;0.60;0.60;;;;;;;12.79;100.00;100288.59;5033215;28;20033;-60
2022/10/25 08:54:26;;;;;;;2.28;0.90;;;;;;;13.08;100.00;100289.28;5032619;28;20106;-58
2022/10/25 08:57:17;;;;;;;1.67;1.10;;;;;;;13.18;100.00;100283.88;5032623;28;20114;-60
2022/10/25 08:59:46;;;;;;;1.95;1.83;;;;;;;13.13;100.00;100291.53;5027310;28;20041;-59
2022/10/25 09:02:19;;;;;;;0.85;0.70;;;;;;;13.03;100.00;100285.34;5032678;28;20034;-60
2022/10/25 09:04:45;;;;;;;1.30;0.70;;;;;;;13.02;100.00;100289.88;5031908;28;20141;-60
2022/10/25 09:07:42;;;;;;;1.35;1.10;;;;;;;13.02;100.00;100294.44;5030768;28;20172;-61
2022/10/25 09:10:26;;;;;;;0.47;0.47;;;;;;;12.76;100.00;100302.34;5031625;28;20048;-59
2022/10/25 09:13:07;;;;;;;1.33;1.23;;;;;;;12.97;100.00;100292.19;5030331;28;20573;-60
2022/10/25 09:15:52;;;;;;;0.20;0.20;;;;;;;12.78;100.00;100303.91;5032550;28;20040;-60
2022/10/25 09:18:21;;;;;;;0.93;0.93;;;;;;;12.79;100.00;100294.81;5031293;28;20124;-59
2022/10/25 09:20:51;;;;;;;1.73;1.63;;;;;;;13.01;100.00;100293.56;5032316;28;20038;-59
2022/10/25 09:23:34;;;;;;;1.00;0.70;;;;;;;13.08;100.00;100291.13;5032235;28;20037;-59
2022/10/25 09:26:09;;;;;;;1.20;0.90;;;;;;;12.89;100.00;100290.22;5031755;28;20037;-60
2022/10/25 09:29:06;;;;;;;1.35;1.25;;;;;;;12.98;100.00;100293.88;5032259;28;20662;-60
2022/10/25 09:31:43;;;;;;;0.85;0.85;;;;;;;13.08;100.00;100291.13;5030584;28;20029;-59
2022/10/25 09:34:10;;;;;;;1.27;0.65;;;;;;;12.99;100.00;100289.34;5031905;28;20103;-62
2022/10/25 09:36:52;;;;;;;0.50;0.50;;;;;;;12.93;100.00;100297.03;5031694;28;20037;-61
2022/10/25 09:39:32;;;;;;;0.73;0.73;;;;;;;13.00;100.00;100291.03;5030164;28;20042;-61
2022/10/25 09:42:00;;;;;;;0.65;0.65;;;;;;;13.01;100.00;100287.34;5031802;28;20025;-60
2022/10/25 09:44:37;;;;;;;2.38;1.00;;;;;;;12.81;100.00;100287.44;5031523;28;20033;-61
2022/10/25 09:47:09;;;;;;;4.13;1.08;;;;;;;12.77;100.00;100291.44;5029935;28;20417;-62
2022/10/25 09:50:02;;;;;;;4.68;1.02;;;;;;;12.63;100.00;100303.53;5030973;28;20083;-62
2022/10/25 09:52:59;;;;;;;0.50;0.50;;;;;;;12.60;100.00;100301.16;5027781;28;20048;-61
2022/10/25 09:55:36;;;;;;;0.75;0.68;;;;;;;12.62;100.00;100293.75;5032030;28;20045;-62
2022/10/25 09:58:02;;;;;;;1.55;1.08;;;;;;;12.52;100.00;100302.84;5029890;28;20036;-61
2022/10/25 10:00:28;;;;;;;0.47;0.47;;;;;;;12.54;100.00;100298.16;5031240;28;20171;-61
2022/10/25 10:02:54;;;;;;;0.73;0.73;;;;;;;12.53;100.00;100302.72;5029324;28;20107;-61
2022/10/25 10:05:21;;;;;;;1.00;1.00;;;;;;;12.45;100.00;100301.75;5030693;28;20458;-61
2022/10/25 10:07:48;;;;;;;0.77;0.60;;;;;;;12.44;100.00;100300.91;5030951;28;20037;-62
2022/10/25 10:10:18;;;;;;;1.33;1.23;;;;;;;12.41;100.00;100301.16;5031013;28;20037;-62
2022/10/25 10:12:58;;;;;;;1.15;0.90;;;;;;;12.39;100.00;100308.56;5029553;28;20125;-62
2022/10/25 10:15:35;;;;;;;0.40;0.40;;;;;;;12.38;100.00;100306.00;5028549;28;20041;-61
2022/10/25 10:18:22;;;;;;;3.30;2.25;;;;;;;12.33;100.00;100310.00;5029288;28;20030;-62
2022/10/25 10:20:59;;;;;;;0.43;0.40;;;;;;;12.46;100.00;100303.44;5029379;28;20042;-62
2022/10/25 10:23:45;;;;;;;0.65;0.65;;;;;;;12.50;100.00;100303.00;5031421;28;20308;-63
2022/10/25 10:26:23;;;;;;;2.72;1.83;;;;;;;12.49;100.00;100304.00;5029163;28;20074;-62
2022/10/25 10:28:53;;;;;;;0.40;0.40;;;;;;;12.44;100.00;100300.06;5030897;28;20041;-62
2022/10/25 10:31:19;;;;;;;1.65;1.00;;;;;;;12.44;100.00;100300.06;5029430;28;20076;-64
2022/10/25 10:33:49;;;;;;;1.40;1.20;;;;;;;12.49;100.00;100304.00;5030900;28;20061;-64
2022/10/25 10:36:29;;;;;;;3.85;1.38;;;;;;;12.50;100.00;100300.31;5030689;28;20086;-63
2022/10/25 10:39:18;;;;;;;1.65;0.82;;;;;;;12.57;100.00;100308.66;5030971;28;20061;-63
2022/10/25 10:42:14;;;;;;;0.63;0.63;;;;;;;12.59;100.00;100303.97;5029096;28;20033;-64
2022/10/25 10:44:40;;;;;;;1.05;0.52;;;;;;;12.31;100.00;100311.16;5028353;28;20049;-62
2022/10/25 10:47:20;;;;;;;0.77;0.77;;;;;;;12.49;100.00;100305.84;5029030;28;20045;-63
2022/10/25 10:49:47;;;;;;;0.52;0.52;;;;;;;12.49;100.00;100308.53;5033085;28;20512;-63
2022/10/25 10:52:40;;;;;;;0.68;0.68;;;;;;;12.40;100.00;100307.56;5034600;28;20029;-63
2022/10/25 10:55:20;;;;;;;1.95;1.23;;;;;;;12.49;100.00;100305.84;5034185;28;20486;-63
2022/10/25 10:57:46;;;;;;;0.52;0.43;;;;;;;12.52;100.00;100308.25;5034975;28;20053;-64
2022/10/25 11:00:24;;;;;;;1.23;1.08;;;;;;;12.58;100.00;100304.97;5034023;28;20394;-63
2022/10/25 11:02:50;;;;;;;3.85;0.88;;;;;;;12.54;100.00;100299.00;5034916;28;20079;-64
2022/10/25 11:05:30;;;;;;;0.50;0.50;;;;;;;12.55;100.00;100297.16;5033233;28;20034;-64
2022/10/25 11:07:58;;;;;;;0.75;0.73;;;;;;;12.62;100.00;100301.00;5033561;28;20057;-63
2022/10/25 11:10:32;;;;;;;1.45;1.27;;;;;;;12.57;100.00;100300.56;5033813;28;20043;-63
2022/10/25 11:13:19;;;;;;;0.63;0.52;;;;;;;12.48;100.00;100304.16;5034866;28;20025;-62
2022/10/25 11:16:03;;;;;;;0.43;0.43;;;;;;;12.65;100.00;100292.59;5034247;28;20041;-64
2022/10/25 11:18:48;;;;;;;0.30;0.30;;;;;;;12.58;100.00;100291.47;5034646;28;20036;-63
2022/10/25 11:21:39;;;;;;;1.85;0.88;;;;;;;12.74;100.00;100296.25;5034932;28;20040;-63
2022/10/25 11:24:13;;;;;;;0.98;0.98;;;;;;;12.80;100.00;100295.69;5033338;28;20398;-63
2022/10/25 11:27:01;;;;;;;0.43;0.20;;;;;;;12.80;100.00;100288.44;5033029;28;20474;-63
2022/10/25 11:29:48;;;;;;;2.28;1.27;;;;;;;12.76;100.00;100292.41;5032944;28;20033;-64
2022/10/25 11:32:28;;;;;;;0.68;0.68;;;;;;;12.66;100.00;100291.59;5032714;28;20040;-63